Bluejacket, Oklahoma
Current Conditions -  °F | °C
As of 6:55 PM on Wednesday 22 Oct 2014 (Local Time) from KGMJ Reporting Station
Clear Clear  
Wind Chill: 68°   Ceiling: Unl
Heat Index: 68°   Visibility: 10mi
Dew Point: 59°   Wind: 3mph
Humidity: 73%   Direction: 130°SE
Pressure: 30.12"   Gusts: NA
Location:  36.8°N, 95.07°W
Report Text: KGMJ 222355Z AUTO 13003KT 10SM CLR 20/15 A3012 RMK AO2
Loading
Personal Weather Stations






























Interactive Weather Map
Tropical Storm Tracking
New forecast layout! Learn more

10-Day Weather Forecast

Advertisements
Track Severe Weather on mobile